Leipheim Air Base EDSD

Flugplatz Daten

Name: Leipheim Air Base

Ident: EDSD

Lat: 48,43999863

Long: 10,23560047

Platzhöhe: 1604 ft

IataCode:

City: Leipheim

Metar

2018/11/08 17:55
LIVT 081755Z 04001KT 0800 FG OVC005 14/12 Q1020 REDSDZ RMK OVC QUK / QUL / VIS MAR 800 M VIS MIN 0800

Taf

Gewünschte Webcam nicht vorhanden? Dann fügen Sie eine hinzu. Sie wird dann so schnell wie möglich freigeschaltet
Url: Title: